Time;durP1;ratioP1;P1;durP2;ratioP2;P2;SDS_P1;SDS_P2;PMS_P1;PMS_P2;Temp;Humidity;BMP_temperature;BMP_pressure;BME280_temperature;BME280_humidity;BME280_pressure;Samples;Min_cycle;Max_cycle;Signal;HPM_P1;HPM_P2
2023/10/25 00:00:12;;;;;;;3.97;2.73;;;;;7.00;93052.00;;;;7398177;19;20149;-80
2023/10/25 00:02:47;;;;;;;7.47;2.57;;;;;7.00;93048.00;;;;7399094;19;20171;-80
2023/10/25 00:05:15;;;;;;;3.50;2.40;;;;;7.00;93039.00;;;;7399536;19;20472;-79
2023/10/25 00:07:49;;;;;;;2.50;2.20;;;;;7.00;93028.00;;;;7397668;19;20153;-79
2023/10/25 00:10:17;;;;;;;8.73;2.50;;;;;7.00;93029.00;;;;7399577;19;20609;-79
2023/10/25 00:12:52;;;;;;;4.03;2.50;;;;;7.00;93035.00;;;;7399685;19;20132;-76
2023/10/25 00:15:22;;;;;;;4.33;2.23;;;;;7.20;93031.00;;;;7399068;19;20158;-80
2023/10/25 00:18:03;;;;;;;3.53;2.60;;;;;7.20;93023.00;;;;7398108;19;20606;-79
2023/10/25 00:20:38;;;;;;;5.00;2.60;;;;;7.30;93016.00;;;;7399043;19;20143;-80
2023/10/25 00:23:15;;;;;;;4.77;2.80;;;;;7.20;93018.00;;;;7398621;19;20494;-78
2023/10/25 00:25:44;;;;;;;9.23;2.60;;;;;7.20;93028.00;;;;7397998;19;20208;-78
2023/10/25 00:28:19;;;;;;;5.40;2.47;;;;;7.20;93027.00;;;;7398142;19;20141;-78
2023/10/25 00:30:48;;;;;;;8.30;2.60;;;;;7.10;93018.00;;;;7399163;19;20487;-76
2023/10/25 00:33:28;;;;;;;6.40;2.60;;;;;7.10;93028.00;;;;7400045;19;20137;-77
2023/10/25 00:35:56;;;;;;;6.53;2.30;;;;;7.00;93034.00;;;;7398554;19;20140;-78
2023/10/25 00:38:30;;;;;;;4.90;2.17;;;;;7.00;93033.00;;;;7395834;19;20145;-77
2023/10/25 00:41:05;;;;;;;2.17;1.80;;;;;7.00;93041.00;;;;7399909;19;20129;-75
2023/10/25 00:43:33;;;;;;;2.20;1.90;;;;;7.00;93030.00;;;;7397207;19;20145;-78
2023/10/25 00:46:26;;;;;;;2.50;2.30;;;;;7.00;93028.00;;;;7397057;19;20148;-77
2023/10/25 00:48:59;;;;;;;7.23;2.53;;;;;7.00;93035.00;;;;7398747;19;20463;-77
2023/10/25 00:51:34;;;;;;;3.00;2.10;;;;;7.00;93025.00;;;;7398357;19;20593;-78
2023/10/25 00:54:04;;;;;;;4.43;2.30;;;;;7.00;93020.00;;;;7395839;19;20137;-76
2023/10/25 00:56:39;;;;;;;3.50;2.10;;;;;7.00;93031.00;;;;7396773;19;20218;-78
2023/10/25 00:59:08;;;;;;;2.40;1.73;;;;;6.80;93028.00;;;;7397318;19;20590;-77
2023/10/25 01:01:44;;;;;;;2.10;1.90;;;;;6.80;93032.00;;;;7395165;19;20174;-77
2023/10/25 01:04:18;;;;;;;4.50;1.87;;;;;6.80;93032.00;;;;7392697;19;20522;-80
2023/10/25 01:06:54;;;;;;;2.20;2.00;;;;;6.80;93032.00;;;;7398208;19;20505;-81
2023/10/25 01:09:30;;;;;;;2.67;2.07;;;;;6.80;93036.00;;;;7394407;19;20166;-80
2023/10/25 01:12:11;;;;;;;9.40;2.20;;;;;6.70;93042.00;;;;7396748;19;20182;-80
2023/10/25 01:14:41;;;;;;;5.30;1.93;;;;;6.70;93037.00;;;;7398379;19;20141;-79
2023/10/25 01:17:23;;;;;;;4.60;2.00;;;;;6.80;93029.00;;;;7396589;19;20152;-80
2023/10/25 01:19:54;;;;;;;2.07;1.90;;;;;6.90;93040.00;;;;7395330;19;20144;-80
2023/10/25 01:22:31;;;;;;;2.90;2.03;;;;;6.90;93039.00;;;;7396921;19;20141;-79
2023/10/25 01:25:01;;;;;;;6.03;2.30;;;;;6.80;93038.00;;;;7396332;19;20235;-80
2023/10/25 01:27:36;;;;;;;2.40;2.10;;;;;6.80;93031.00;;;;7397295;19;20191;-79
2023/10/25 01:30:04;;;;;;;2.40;2.20;;;;;6.90;93040.00;;;;7397404;19;20129;-80
2023/10/25 01:32:39;;;;;;;2.80;2.30;;;;;7.00;93041.00;;;;7397512;19;20136;-80
2023/10/25 01:35:08;;;;;;;3.80;2.60;;;;;7.00;93041.00;;;;7398563;19;20132;-79
2023/10/25 01:37:42;;;;;;;3.23;2.60;;;;;7.10;93030.00;;;;7397704;19;20139;-79
2023/10/25 01:40:17;;;;;;;3.60;2.60;;;;;7.10;93036.00;;;;7397410;19;20150;-79
2023/10/25 01:42:54;;;;;;;3.60;2.30;;;;;7.20;93026.00;;;;7398644;19;20631;-79
2023/10/25 01:45:30;;;;;;;3.63;2.10;;;;;7.30;93026.00;;;;7397173;19;20181;-80
2023/10/25 01:47:58;;;;;;;4.90;2.90;;;;;7.20;93022.00;;;;7395720;19;20149;-80
2023/10/25 01:50:33;;;;;;;4.27;2.70;;;;;7.30;93029.00;;;;7396712;19;20144;-81
2023/10/25 01:53:03;;;;;;;3.80;2.70;;;;;7.30;93024.00;;;;7396000;19;20157;-81
2023/10/25 01:55:41;;;;;;;3.30;2.47;;;;;7.30;93001.00;;;;7395601;19;20773;-80
2023/10/25 01:58:16;;;;;;;4.40;2.90;;;;;7.30;93022.00;;;;7395034;19;20137;-80
2023/10/25 02:00:50;;;;;;;2.97;2.60;;;;;7.40;93007.00;;;;7396874;19;20656;-80
2023/10/25 02:03:41;;;;;;;4.80;2.70;;;;;7.50;93001.00;;;;7393895;19;20179;-80
2023/10/25 02:06:23;;;;;;;3.10;2.23;;;;;7.40;93002.00;;;;7394992;19;20758;-80
2023/10/25 02:08:58;;;;;;;3.07;2.40;;;;;7.50;92997.00;;;;7395769;19;20385;-81
2023/10/25 02:11:36;;;;;;;4.50;2.50;;;;;7.50;92989.00;;;;7395850;19;20133;-80
2023/10/25 02:14:13;;;;;;;3.27;2.73;;;;;7.50;92992.00;;;;7395008;19;20148;-81
2023/10/25 02:16:41;;;;;;;4.43;2.80;;;;;7.50;92991.00;;;;7396635;19;20145;-82
2023/10/25 02:19:38;;;;;;;3.10;2.27;;;;;7.40;92987.00;;;;7394919;19;20137;-81
2023/10/25 02:22:06;;;;;;;4.47;2.40;;;;;7.50;92989.00;;;;7395175;19;20145;-82
2023/10/25 02:24:41;;;;;;;3.60;2.90;;;;;7.50;92980.00;;;;7395500;19;20575;-81
2023/10/25 02:27:22;;;;;;;4.73;2.73;;;;;7.50;92968.00;;;;7397099;19;20215;-81
2023/10/25 02:29:57;;;;;;;2.90;2.60;;;;;7.40;92976.00;;;;7395092;19;20144;-81
2023/10/25 02:32:25;;;;;;;4.90;3.03;;;;;7.40;92975.00;;;;7395293;19;20484;-82
2023/10/25 02:35:02;;;;;;;3.87;2.57;;;;;7.40;92987.00;;;;7395373;19;20284;-81
2023/10/25 02:37:30;;;;;;;3.77;2.90;;;;;7.40;92990.00;;;;7395686;19;20144;-80
2023/10/25 02:40:05;;;;;;;3.47;2.80;;;;;7.40;92980.00;;;;7393096;19;20156;-82
2023/10/25 02:42:44;;;;;;;6.40;3.03;;;;;7.30;92974.00;;;;7397068;19;20457;-81
2023/10/25 02:45:12;;;;;;;5.07;2.70;;;;;7.20;92973.00;;;;7394217;19;20488;-81
2023/10/25 02:47:50;;;;;;;4.30;2.80;;;;;7.30;92972.00;;;;7395601;19;20648;-80
2023/10/25 02:50:24;;;;;;;3.67;2.83;;;;;7.20;92963.00;;;;7396462;19;20132;-81
2023/10/25 02:53:03;;;;;;;3.50;2.77;;;;;7.20;92963.00;;;;7394579;19;20472;-81
2023/10/25 02:55:33;;;;;;;4.67;3.37;;;;;7.20;92954.00;;;;7395139;19;20182;-80
2023/10/25 02:58:08;;;;;;;3.73;3.40;;;;;7.20;92960.00;;;;7395929;19;20133;-81
2023/10/25 03:00:43;;;;;;;6.83;3.70;;;;;7.20;92964.00;;;;7395599;19;20196;-80
2023/10/25 03:03:32;;;;;;;4.53;3.77;;;;;7.30;92956.00;;;;7391835;19;20205;-80
2023/10/25 03:06:14;;;;;;;5.87;4.60;;;;;7.30;92952.00;;;;7394926;19;20164;-80
2023/10/25 03:08:49;;;;;;;8.97;4.33;;;;;7.30;92947.00;;;;7395369;19;20171;-82
2023/10/25 03:11:35;;;;;;;5.27;4.30;;;;;7.40;92949.00;;;;7393372;19;20214;-81
2023/10/25 03:14:10;;;;;;;6.00;4.40;;;;;7.50;92948.00;;;;7394153;19;20156;-81
2023/10/25 03:16:46;;;;;;;7.83;4.13;;;;;7.60;92941.00;;;;7394942;19;20627;-82
2023/10/25 03:19:21;;;;;;;5.30;4.03;;;;;7.60;92939.00;;;;7394676;19;20143;-81
2023/10/25 03:21:51;;;;;;;7.00;3.57;;;;;7.70;92937.00;;;;7392920;19;20152;-81
2023/10/25 03:24:30;;;;;;;4.67;3.97;;;;;7.60;92940.00;;;;7393894;19;20738;-81
2023/10/25 03:27:07;;;;;;;4.00;3.60;;;;;7.60;92937.00;;;;7394175;19;20659;-81
2023/10/25 03:29:41;;;;;;;6.27;4.00;;;;;7.60;92936.00;;;;7393245;19;20129;-81
2023/10/25 03:32:16;;;;;;;5.23;4.37;;;;;7.70;92936.00;;;;7395061;19;20461;-81
2023/10/25 03:34:45;;;;;;;6.07;4.80;;;;;7.70;92919.00;;;;7401039;19;20144;-84
2023/10/25 03:37:21;;;;;;;6.07;5.13;;;;;7.70;92914.00;;;;7400353;19;20132;-82
2023/10/25 03:40:11;;;;;;;8.47;4.77;;;;;7.70;92918.00;;;;7398437;19;20179;-82
2023/10/25 03:42:46;;;;;;;5.53;4.47;;;;;7.60;92912.00;;;;7400454;19;20133;-82
2023/10/25 03:45:15;;;;;;;7.03;5.37;;;;;7.60;92909.00;;;;7400475;19;20704;-81
2023/10/25 03:47:51;;;;;;;9.00;5.17;;;;;7.50;92916.00;;;;7400338;19;20135;-82
2023/10/25 03:50:27;;;;;;;7.47;5.40;;;;;7.50;92912.00;;;;7400459;19;20616;-84
2023/10/25 03:52:55;;;;;;;6.93;5.30;;;;;7.40;92908.00;;;;7399099;19;20133;-85
2023/10/25 03:55:25;;;;;;;7.23;5.47;;;;;7.50;92905.00;;;;7400163;19;20599;-83
2023/10/25 03:57:59;;;;;;;11.53;5.50;;;;;7.50;92915.00;;;;7400795;19;20872;-81
2023/10/25 04:00:34;;;;;;;8.27;5.30;;;;;7.40;92912.00;;;;7397432;19;20136;-83
2023/10/25 04:03:22;;;;;;;7.40;5.70;;;;;7.30;92902.00;;;;7400084;19;20147;-82
2023/10/25 04:05:59;;;;;;;8.23;5.97;;;;;7.30;92891.00;;;;7398426;19;20592;-82
2023/10/25 04:08:35;;;;;;;10.23;6.33;;;;;7.40;92891.00;;;;7400650;19;20136;-81
2023/10/25 04:11:04;;;;;;;9.27;6.57;;;;;7.30;92891.00;;;;7401362;19;20596;-81
2023/10/25 04:13:39;;;;;;;9.00;6.20;;;;;7.20;92886.00;;;;7399187;19;20615;-82
2023/10/25 04:16:13;;;;;;;10.43;6.73;;;;;7.20;92888.00;;;;7399100;19;20149;-81
2023/10/25 04:18:48;;;;;;;11.73;7.77;;;;;7.10;92876.00;;;;7401468;19;20133;-83
2023/10/25 04:21:24;;;;;;;12.13;8.00;;;;;7.20;92883.00;;;;7397702;19;20616;-82
2023/10/25 04:23:53;;;;;;;15.67;9.57;;;;;7.30;92880.00;;;;7398790;19;20141;-82
2023/10/25 04:26:28;;;;;;;15.07;9.97;;;;;7.20;92877.00;;;;7399285;19;20132;-84
2023/10/25 04:29:06;;;;;;;19.53;10.13;;;;;7.20;92872.00;;;;7400441;19;20599;-83
2023/10/25 04:31:41;;;;;;;190.73;18.57;;;;;7.30;92866.00;;;;7401033;19;20128;-81
2023/10/25 04:34:16;;;;;;;197.63;20.77;;;;;7.30;92857.00;;;;7399181;19;20486;-80
2023/10/25 04:36:51;;;;;;;398.00;27.47;;;;;7.30;92858.00;;;;7397759;19;20148;-85
2023/10/25 04:39:25;;;;;;;227.47;19.47;;;;;7.20;92850.00;;;;7399264;19;20141;-86
2023/10/25 04:42:00;;;;;;;693.93;38.20;;;;;7.20;92854.00;;;;7400938;19;20685;-84
2023/10/25 04:44:35;;;;;;;381.00;25.97;;;;;7.30;92861.00;;;;7399496;19;20634;-86
2023/10/25 04:47:03;;;;;;;590.03;39.17;;;;;7.30;92851.00;;;;7398887;19;20607;-83
2023/10/25 04:49:45;;;;;;;444.63;27.50;;;;;7.20;92854.00;;;;7398359;19;20140;-82
2023/10/25 04:52:20;;;;;;;682.80;33.83;;;;;7.20;92853.00;;;;7397718;19;20151;-85
2023/10/25 04:54:57;;;;;;;343.93;25.80;;;;;7.10;92854.00;;;;7400049;19;20132;-83
2023/10/25 04:57:34;;;;;;;377.87;24.70;;;;;7.10;92859.00;;;;7398016;19;20646;-84
2023/10/25 05:00:03;;;;;;;768.80;38.67;;;;;7.00;92850.00;;;;7396802;19;20223;-81
2023/10/25 05:02:38;;;;;;;523.13;29.20;;;;;6.90;92846.00;;;;7398504;19;20487;-83
2023/10/25 05:05:15;;;;;;;237.93;18.33;;;;;6.90;92839.00;;;;7395430;19;20149;-86
2023/10/25 05:07:57;;;;;;;457.40;28.80;;;;;6.90;92834.00;;;;7399619;19;20197;-83
2023/10/25 05:10:26;;;;;;;797.37;37.50;;;;;6.90;92835.00;;;;7398764;19;20148;-83
2023/10/25 05:13:01;;;;;;;577.23;29.60;;;;;6.80;92827.00;;;;7398138;19;20176;-85
2023/10/25 05:15:31;;;;;;;648.23;35.70;;;;;6.80;92814.00;;;;7398316;19;20216;-83
2023/10/25 05:18:08;;;;;;;482.00;29.37;;;;;6.80;92819.00;;;;7398284;19;20604;-84
2023/10/25 05:20:38;;;;;;;355.93;23.67;;;;;6.70;92814.00;;;;7396401;19;20601;-84
2023/10/25 05:23:13;;;;;;;203.37;16.43;;;;;6.70;92814.00;;;;7388244;19;20241;-82
2023/10/25 05:25:41;;;;;;;287.37;19.93;;;;;6.60;92813.00;;;;7388991;19;20604;-82
2023/10/25 05:28:16;;;;;;;149.37;15.67;;;;;6.60;92817.00;;;;7389474;19;20449;-81
2023/10/25 05:30:53;;;;;;;477.10;30.43;;;;;6.60;92820.00;;;;7389014;19;20160;-82
2023/10/25 05:33:31;;;;;;;106.13;12.97;;;;;6.60;92818.00;;;;7388957;19;20145;-81
2023/10/25 05:36:02;;;;;;;34.53;10.77;;;;;6.50;92817.00;;;;7387683;19;20627;-83
2023/10/25 05:38:39;;;;;;;50.30;11.47;;;;;6.50;92822.00;;;;7387763;19;20773;-82
2023/10/25 05:41:20;;;;;;;27.30;9.60;;;;;6.50;92811.00;;;;7387521;19;20144;-83
2023/10/25 05:44:16;;;;;;;19.20;10.27;;;;;6.60;92819.00;;;;7389024;19;20472;-89
2023/10/25 05:46:44;;;;;;;22.77;11.23;;;;;6.70;92813.00;;;;7387616;19;20152;-86
2023/10/25 05:49:20;;;;;;;69.73;12.27;;;;;6.70;92808.00;;;;7389094;19;20622;-84
2023/10/25 05:51:48;;;;;;;26.13;10.93;;;;;6.70;92797.00;;;;7387753;19;20135;-86
2023/10/25 05:54:17;;;;;;;31.40;12.20;;;;;6.70;92790.00;;;;7387636;19;20152;-85
2023/10/25 05:56:52;;;;;;;36.13;12.70;;;;;6.70;92780.00;;;;7383751;19;20148;-85
2023/10/25 05:59:28;;;;;;;20.40;11.03;;;;;6.70;92789.00;;;;7387790;19;20120;-84
2023/10/25 06:02:10;;;;;;;24.83;11.90;;;;;6.70;92782.00;;;;7385609;19;20580;-88
2023/10/25 06:04:56;;;;;;;36.43;12.77;;;;;6.70;92780.00;;;;7385334;19;20236;-83
2023/10/25 06:07:37;;;;;;;25.63;12.63;;;;;6.80;92777.00;;;;7387835;19;20276;-84
2023/10/25 06:10:11;;;;;;;42.97;13.13;;;;;6.80;92778.00;;;;7387851;19;20128;-85
2023/10/25 06:12:52;;;;;;;23.20;13.50;;;;;6.80;92786.00;;;;7390133;19;20141;-87
2023/10/25 06:15:26;;;;;;;21.57;13.23;;;;;6.80;92775.00;;;;7389473;19;20518;-80
2023/10/25 06:17:55;;;;;;;21.40;13.43;;;;;7.00;92771.00;;;;7386865;19;20609;-81
2023/10/25 06:20:33;;;;;;;23.53;13.47;;;;;7.00;92779.00;;;;7385963;19;20152;-85
2023/10/25 06:23:01;;;;;;;24.53;14.30;;;;;7.10;92755.00;;;;7384339;19;20129;-83
2023/10/25 06:25:38;;;;;;;22.77;14.20;;;;;7.30;92760.00;;;;7389410;19;20521;-80
2023/10/25 06:28:07;;;;;;;23.80;14.03;;;;;7.40;92769.00;;;;7387087;19;20129;-87
2023/10/25 06:30:41;;;;;;;22.63;13.97;;;;;7.50;92748.00;;;;7386132;19;20157;-86
2023/10/25 06:33:18;;;;;;;21.33;13.93;;;;;7.50;92762.00;;;;7385887;19;20137;-85
2023/10/25 06:36:02;;;;;;;21.13;13.83;;;;;7.40;92756.00;;;;7387496;19;20160;-90
2023/10/25 06:38:37;;;;;;;20.73;13.63;;;;;7.50;92753.00;;;;7389708;19;20243;-89
2023/10/25 06:41:15;;;;;;;22.93;13.90;;;;;7.70;92745.00;;;;7388239;19;20197;-84
2023/10/25 06:43:56;;;;;;;21.50;13.70;;;;;7.70;92751.00;;;;7387620;19;20483;-83
2023/10/25 06:46:24;;;;;;;20.93;14.00;;;;;7.70;92759.00;;;;7387155;19;20189;-87
2023/10/25 06:48:59;;;;;;;20.57;13.40;;;;;7.70;92747.00;;;;7385114;19;20629;-85
2023/10/25 06:51:35;;;;;;;18.97;12.30;;;;;7.80;92749.00;;;;7387950;19;20604;-89
2023/10/25 06:54:11;;;;;;;22.17;14.07;;;;;7.80;92746.00;;;;7385195;19;20154;-82
2023/10/25 06:56:46;;;;;;;24.00;13.60;;;;;7.90;92738.00;;;;7382667;19;20259;-79
2023/10/25 06:59:21;;;;;;;22.50;13.87;;;;;8.00;92739.00;;;;7383609;19;20163;-80
2023/10/25 07:02:10;;;;;;;20.53;13.50;;;;;8.10;92734.00;;;;7384483;19;20624;-77
2023/10/25 07:04:53;;;;;;;20.73;13.50;;;;;8.00;92733.00;;;;7382992;19;20172;-80
2023/10/25 07:07:31;;;;;;;19.17;13.03;;;;;8.20;92734.00;;;;7383032;19;20145;-78
2023/10/25 07:09:59;;;;;;;18.53;12.67;;;;;8.20;92729.00;;;;7390029;19;20534;-77
2023/10/25 07:12:35;;;;;;;17.43;12.63;;;;;8.20;92723.00;;;;7391512;19;20195;-81
2023/10/25 07:15:07;;;;;;;19.03;12.50;;;;;8.30;92720.00;;;;7389939;19;20144;-78
2023/10/25 07:17:42;;;;;;;21.20;12.67;;;;;8.40;92719.00;;;;7388390;19;20203;-82
2023/10/25 07:20:18;;;;;;;17.13;12.00;;;;;8.30;92719.00;;;;7390973;19;20129;-78
2023/10/25 07:22:54;;;;;;;17.20;12.60;;;;;8.20;92720.00;;;;7390403;19;20591;-79
2023/10/25 07:25:26;;;;;;;19.03;12.57;;;;;8.20;92723.00;;;;7390493;19;20619;-78
2023/10/25 07:28:02;;;;;;;17.57;12.30;;;;;8.30;92713.00;;;;7389620;19;20137;-79
2023/10/25 07:30:37;;;;;;;19.47;12.53;;;;;8.10;92711.00;;;;7389670;19;20632;-78
2023/10/25 07:33:13;;;;;;;16.77;12.13;;;;;8.20;92711.00;;;;7389680;19;20148;-78
2023/10/25 07:35:41;;;;;;;15.37;11.77;;;;;8.20;92709.00;;;;7389055;19;20175;-79
2023/10/25 07:38:15;;;;;;;20.90;11.77;;;;;8.50;92709.00;;;;7389124;19;20464;-77
2023/10/25 07:40:43;;;;;;;17.20;12.50;;;;;8.60;92695.00;;;;7390806;19;20137;-78
2023/10/25 07:43:38;;;;;;;15.80;12.27;;;;;8.90;92685.00;;;;7389689;19;20604;-78
2023/10/25 07:46:12;;;;;;;17.83;12.30;;;;;9.20;92682.00;;;;7389065;19;20156;-78
2023/10/25 07:48:50;;;;;;;18.65;12.45;;;;;9.40;92681.00;;;;7389054;19;20154;-77
2023/10/25 07:51:20;;;;;;;16.92;12.40;;;;;9.30;92674.00;;;;7388663;19;20154;-79
2023/10/25 07:53:55;;;;;;;14.10;10.73;;;;;9.30;92674.00;;;;7390744;19;20478;-77
2023/10/25 07:56:24;;;;;;;13.13;10.77;;;;;9.20;92675.00;;;;7389762;19;20133;-78
2023/10/25 07:59:03;;;;;;;13.63;10.83;;;;;9.20;92666.00;;;;7390299;19;20153;-77
2023/10/25 08:01:32;;;;;;;14.13;10.67;;;;;9.30;92676.00;;;;7389674;19;20156;-78
2023/10/25 08:04:14;;;;;;;12.30;10.23;;;;;9.20;92661.00;;;;7388453;19;20188;-81
2023/10/25 08:06:59;;;;;;;12.95;10.20;;;;;9.50;92672.00;;;;7389175;19;20152;-81
2023/10/25 08:09:40;;;;;;;10.82;9.45;;;;;9.30;92662.00;;;;7388916;19;20132;-80
2023/10/25 08:12:09;;;;;;;11.15;8.70;;;;;9.20;92663.00;;;;7388262;19;20222;-79
2023/10/25 08:14:45;;;;;;;12.23;9.20;;;;;9.20;92666.00;;;;7386704;19;20148;-80
2023/10/25 08:17:23;;;;;;;11.10;8.60;;;;;9.10;92659.00;;;;7388076;19;20600;-80
2023/10/25 08:19:58;;;;;;;9.70;8.70;;;;;9.20;92658.00;;;;7386728;19;20157;-79
2023/10/25 08:22:35;;;;;;;10.43;8.40;;;;;9.00;92660.00;;;;7388697;19;20136;-79
2023/10/25 08:25:08;;;;;;;9.67;8.43;;;;;9.30;92640.00;;;;7388805;19;20153;-81
2023/10/25 08:27:44;;;;;;;10.10;8.10;;;;;9.30;92652.00;;;;7389293;19;20234;-82
2023/10/25 08:30:22;;;;;;;11.97;8.43;;;;;9.50;92649.00;;;;7386906;19;20166;-80
2023/10/25 08:32:58;;;;;;;8.77;7.87;;;;;9.50;92647.00;;;;7387939;19;20133;-81
2023/10/25 08:35:36;;;;;;;8.98;7.90;;;;;9.30;92642.00;;;;7388163;19;20156;-80
2023/10/25 08:38:27;;;;;;;9.37;8.20;;;;;9.30;92652.00;;;;7387063;19;20155;-79
2023/10/25 08:41:06;;;;;;;11.15;7.68;;;;;9.20;92648.00;;;;7388758;19;20633;-81
2023/10/25 08:43:42;;;;;;;9.13;7.97;;;;;8.90;92651.00;;;;7387571;19;20141;-79
2023/10/25 08:46:23;;;;;;;8.80;7.90;;;;;9.00;92640.00;;;;7388834;19;20137;-80
2023/10/25 08:48:57;;;;;;;8.77;7.88;;;;;8.90;92649.00;;;;7386586;19;20148;-79
2023/10/25 08:51:25;;;;;;;9.87;8.30;;;;;9.00;92643.00;;;;7388290;19;20156;-81
2023/10/25 08:54:02;;;;;;;9.37;7.60;;;;;8.90;92633.00;;;;7388210;19;20136;-80
2023/10/25 08:56:31;;;;;;;9.57;7.53;;;;;9.00;92633.00;;;;7386389;19;20496;-80
2023/10/25 08:59:05;;;;;;;8.57;7.75;;;;;9.00;92630.00;;;;7388720;19;20132;-80
2023/10/25 09:01:37;;;;;;;10.03;7.67;;;;;9.00;92634.00;;;;7386632;19;20149;-80
2023/10/25 09:04:09;;;;;;;10.03;8.00;;;;;9.10;92626.00;;;;7386281;19;20295;-79
2023/10/25 09:06:45;;;;;;;11.43;8.53;;;;;9.00;92620.00;;;;7387256;19;20173;-79
2023/10/25 09:09:19;;;;;;;9.17;8.20;;;;;9.20;92631.00;;;;7386493;19;20154;-80
2023/10/25 09:11:54;;;;;;;9.48;7.93;;;;;9.20;92629.00;;;;7388478;19;20751;-80
2023/10/25 09:14:47;;;;;;;10.20;8.43;;;;;9.30;92623.00;;;;7388812;19;20133;-78
2023/10/25 09:17:15;;;;;;;12.17;9.27;;;;;9.40;92624.00;;;;7387842;19;20133;-78
2023/10/25 09:19:52;;;;;;;10.23;8.60;;;;;9.30;92616.00;;;;7387474;19;20129;-78
2023/10/25 09:22:30;;;;;;;9.52;8.18;;;;;9.50;92619.00;;;;7382374;19;21156;-79
2023/10/25 09:25:00;;;;;;;11.13;9.20;;;;;9.40;92615.00;;;;7388331;19;20157;-78
2023/10/25 09:27:52;;;;;;;9.82;8.77;;;;;9.40;92601.00;;;;7385750;19;20536;-78
2023/10/25 09:30:36;;;;;;;9.80;8.47;;;;;9.50;92592.00;;;;7383161;19;20172;-78
2023/10/25 09:33:12;;;;;;;11.80;8.37;;;;;9.50;92590.00;;;;7384926;19;20155;-80
2023/10/25 09:35:42;;;;;;;10.57;8.63;;;;;9.50;92600.00;;;;7385473;19;20153;-78
2023/10/25 09:38:18;;;;;;;12.32;9.20;;;;;9.50;92588.00;;;;7388382;19;20643;-78
2023/10/25 09:40:53;;;;;;;11.37;9.17;;;;;9.80;92569.00;;;;7386441;19;20148;-81
2023/10/25 09:43:51;;;;;;;11.73;9.45;;;;;10.70;92549.00;;;;7384041;19;20160;-78
2023/10/25 09:46:30;;;;;;;10.18;8.88;;;;;10.70;92550.00;;;;7384963;19;20742;-80
2023/10/25 09:49:08;;;;;;;8.32;7.50;;;;;10.90;92557.00;;;;7384252;19;20181;-77
2023/10/25 09:52:01;;;;;;;12.50;7.97;;;;;10.90;92562.00;;;;7387428;19;20124;-81
2023/10/25 09:55:14;;;;;;;10.98;7.40;;;;;10.80;92551.00;;;;7386101;19;20128;-78
2023/10/25 09:57:42;;;;;;;7.60;6.85;;;;;10.80;92556.00;;;;7386456;19;20136;-80
2023/10/25 10:00:18;;;;;;;8.18;7.07;;;;;10.90;92544.00;;;;7384254;19;20171;-81
2023/10/25 10:03:13;;;;;;;7.53;6.55;;;;;10.80;92545.00;;;;7384116;19;20179;-80
2023/10/25 10:06:17;;;;;;;9.55;5.72;;;;;11.00;92540.00;;;;7383334;19;20556;-79
2023/10/25 10:09:05;;;;;;;6.80;6.20;;;;;10.80;92544.00;;;;7384460;19;20169;-80
2023/10/25 10:11:49;;;;;;;7.07;5.78;;;;;10.60;92537.00;;;;7386337;19;20151;-80
2023/10/25 10:14:35;;;;;;;6.80;5.70;;;;;10.60;92534.00;;;;7386973;19;20136;-82
2023/10/25 10:17:17;;;;;;;9.50;5.80;;;;;10.60;92524.00;;;;7383005;19;20180;-78
2023/10/25 10:19:57;;;;;;;6.07;5.53;;;;;10.50;92521.00;;;;7382986;19;20714;-78
2023/10/25 10:22:31;;;;;;;6.60;6.00;;;;;10.30;92524.00;;;;7382447;19;20132;-79
2023/10/25 10:25:04;;;;;;;7.22;6.15;;;;;10.40;92512.00;;;;7384379;19;20137;-81
2023/10/25 10:27:41;;;;;;;6.72;6.03;;;;;10.20;92512.00;;;;7384597;19;20200;-80
2023/10/25 10:30:29;;;;;;;6.70;5.70;;;;;10.40;92510.00;;;;7385161;19;20652;-80
2023/10/25 10:33:06;;;;;;;7.07;6.38;;;;;10.60;92503.00;;;;7384294;19;20152;-81
2023/10/25 10:35:50;;;;;;;6.65;5.97;;;;;10.70;92496.00;;;;7386420;19;20802;-82
2023/10/25 10:38:18;;;;;;;7.00;6.30;;;;;10.70;92479.00;;;;7382958;19;20175;-82
2023/10/25 10:41:02;;;;;;;6.68;5.93;;;;;10.70;92490.00;;;;7383471;19;20148;-82
2023/10/25 10:43:37;;;;;;;6.82;5.43;;;;;10.60;92484.00;;;;7390901;19;20137;-81
2023/10/25 10:46:11;;;;;;;6.03;5.43;;;;;10.60;92475.00;;;;7391463;19;20649;-80
2023/10/25 10:48:42;;;;;;;7.28;5.55;;;;;10.70;92467.00;;;;7391026;19;20153;-82
2023/10/25 10:51:17;;;;;;;6.88;5.93;;;;;10.80;92468.00;;;;7392903;19;20133;-83
2023/10/25 10:53:55;;;;;;;10.80;6.03;;;;;10.80;92459.00;;;;7391915;19;20132;-83
2023/10/25 10:56:30;;;;;;;6.25;5.65;;;;;10.90;92450.00;;;;7392247;19;20196;-80
2023/10/25 10:59:07;;;;;;;5.80;5.20;;;;;11.30;92425.00;;;;7390285;19;20215;-81
2023/10/25 11:01:54;;;;;;;6.05;5.43;;;;;11.80;92425.00;;;;7391993;19;20449;-81
2023/10/25 11:04:29;;;;;;;6.25;5.00;;;;;11.80;92423.00;;;;7389870;19;20175;-82
2023/10/25 11:07:10;;;;;;;5.65;5.00;;;;;11.90;92422.00;;;;7390629;19;20136;-82
2023/10/25 11:09:37;;;;;;;5.25;4.75;;;;;11.90;92415.00;;;;7390760;19;20136;-81
2023/10/25 11:12:14;;;;;;;5.13;4.10;;;;;11.80;92414.00;;;;7390442;19;20144;-83
2023/10/25 11:14:50;;;;;;;4.18;3.83;;;;;12.00;92410.00;;;;7390064;19;20623;-81
2023/10/25 11:17:24;;;;;;;5.32;3.92;;;;;12.10;92397.00;;;;7388974;19;20506;-81
2023/10/25 11:20:01;;;;;;;3.70;3.30;;;;;12.40;92388.00;;;;7391648;19;20589;-82
2023/10/25 11:22:38;;;;;;;3.72;3.40;;;;;13.20;92356.00;;;;7388902;19;20614;-80
2023/10/25 11:25:24;;;;;;;4.97;3.08;;;;;13.70;92363.00;;;;7390338;19;20539;-83
2023/10/25 11:27:58;;;;;;;3.30;3.00;;;;;13.50;92366.00;;;;7392576;19;20616;-81
2023/10/25 11:30:27;;;;;;;3.13;2.75;;;;;13.10;92366.00;;;;7391284;19;20153;-85
2023/10/25 11:33:02;;;;;;;2.60;2.40;;;;;12.80;92362.00;;;;7386837;19;20183;-82
2023/10/25 11:35:30;;;;;;;2.90;2.58;;;;;12.50;92373.00;;;;7388801;19;20145;-83
2023/10/25 11:37:59;;;;;;;2.60;2.40;;;;;12.30;92367.00;;;;7389837;19;20521;-84
2023/10/25 11:40:39;;;;;;;2.72;2.30;;;;;12.10;92361.00;;;;7387445;19;20141;-81
2023/10/25 11:43:08;;;;;;;2.67;2.47;;;;;12.50;92350.00;;;;7391663;19;20133;-85
2023/10/25 11:45:42;;;;;;;4.30;2.53;;;;;12.50;92352.00;;;;7387320;19;20595;-81
2023/10/25 11:48:10;;;;;;;3.03;2.70;;;;;12.20;92359.00;;;;7388769;19;20608;-83
2023/10/25 11:50:54;;;;;;;3.45;2.60;;;;;12.10;92355.00;;;;7387799;19;20207;-82
2023/10/25 11:53:25;;;;;;;3.10;2.80;;;;;12.10;92349.00;;;;7389889;19;20580;-85
2023/10/25 11:56:21;;;;;;;2.80;2.47;;;;;12.00;92354.00;;;;7392598;19;20148;-82
2023/10/25 11:58:50;;;;;;;2.88;2.58;;;;;11.90;92338.00;;;;7388725;19;20178;-85
2023/10/25 12:01:36;;;;;;;2.70;2.50;;;;;12.30;92329.00;;;;7390638;19;20460;-84
2023/10/25 12:04:16;;;;;;;4.10;2.70;;;;;12.60;92334.00;;;;7389986;19;20176;-84
2023/10/25 12:06:58;;;;;;;9.15;2.70;;;;;12.20;92323.00;;;;7391550;19;20152;-84
2023/10/25 12:09:39;;;;;;;5.07;2.75;;;;;12.10;92324.00;;;;7391620;19;20152;-81
2023/10/25 12:12:13;;;;;;;2.53;2.30;;;;;12.10;92326.00;;;;7389362;19;20476;-82
2023/10/25 12:14:41;;;;;;;2.83;2.50;;;;;12.00;92332.00;;;;7390935;19;20148;-83
2023/10/25 12:17:15;;;;;;;2.38;2.10;;;;;11.80;92340.00;;;;7392075;19;20658;-81
2023/10/25 12:19:51;;;;;;;2.70;2.30;;;;;11.50;92328.00;;;;7388505;19;20148;-81
2023/10/25 12:22:41;;;;;;;2.92;2.28;;;;;11.50;92317.00;;;;7387663;19;20153;-81
2023/10/25 12:25:16;;;;;;;2.78;2.50;;;;;11.70;92323.00;;;;7387760;19;20211;-85
2023/10/25 12:27:47;;;;;;;3.08;2.60;;;;;11.60;92335.00;;;;7384414;19;20145;-85
2023/10/25 12:30:15;;;;;;;5.75;3.00;;;;;11.50;92330.00;;;;7384559;19;20156;-83
2023/10/25 12:32:53;;;;;;;2.80;2.38;;;;;11.50;92327.00;;;;7385836;19;20143;-86
2023/10/25 12:35:27;;;;;;;2.95;2.47;;;;;11.40;92333.00;;;;7384412;19;20823;-83
2023/10/25 12:37:55;;;;;;;3.65;2.97;;;;;11.20;92328.00;;;;7386389;19;20153;-85
2023/10/25 12:40:32;;;;;;;3.45;2.70;;;;;11.20;92321.00;;;;7386743;19;20212;-83
2023/10/25 12:43:06;;;;;;;4.72;2.90;;;;;11.10;92318.00;;;;7386081;19;20136;-81
2023/10/25 12:45:40;;;;;;;7.28;2.95;;;;;11.10;92309.00;;;;7382946;19;20135;-82
2023/10/25 12:48:14;;;;;;;5.93;3.17;;;;;11.10;92298.00;;;;7384755;19;20531;-81
2023/10/25 12:50:51;;;;;;;2.67;2.45;;;;;11.30;92292.00;;;;7381544;19;20239;-80
2023/10/25 12:53:19;;;;;;;2.78;2.38;;;;;11.40;92286.00;;;;7385137;19;20137;-82
2023/10/25 12:55:58;;;;;;;2.75;2.30;;;;;11.80;92292.00;;;;7383193;19;20183;-80
2023/10/25 12:58:32;;;;;;;3.05;2.75;;;;;12.10;92285.00;;;;7384470;19;20608;-82
2023/10/25 13:01:02;;;;;;;2.58;2.38;;;;;12.50;92290.00;;;;7386782;19;20584;-82